Armadale, Australia
Current Conditions -  °F | °C
As of 7:00 PM on Wednesday 26 Nov 2014 (Local Time) from YPJT Reporting Station
Rain Showers Rain Showers  
Wind Chill: 68°   Ceiling: 10000
Heat Index: 68°   Visibility: 6mi
Dew Point: 63°   Wind: 12mph
Humidity: 83%   Direction: 130°SE
Pressure: 29.85"   Gusts: NA
Location:  32.15°S, 116°E
Report Text: YPJT 261100Z AUTO 13010KT 9999 -SHRA BKN100 OVC120 20/17 Q1011
Loading
Personal Weather Stations






























Interactive Weather Map New forecast layout! Learn more

10-Day Weather Forecast

Advertisements
Track Severe Weather on mobile